sensor_id;sensor_type;location;lat;lon;timestamp;P1;durP1;ratioP1;P2;durP2;ratioP2
20170;SDS011;10245;51.344;6.620;2023-04-24T00:01:04;0.95;;;0.90;;
20170;SDS011;10245;51.344;6.620;2023-04-24T00:03:29;2.67;;;1.20;;
20170;SDS011;10245;51.344;6.620;2023-04-24T00:05:55;1.65;;;1.20;;
20170;SDS011;10245;51.344;6.620;2023-04-24T00:08:20;2.20;;;1.25;;
20170;SDS011;10245;51.344;6.620;2023-04-24T00:10:45;2.50;;;1.65;;
20170;SDS011;10245;51.344;6.620;2023-04-24T00:13:08;4.65;;;1.35;;
20170;SDS011;10245;51.344;6.620;2023-04-24T00:15:32;2.50;;;1.15;;
20170;SDS011;10245;51.344;6.620;2023-04-24T00:17:55;1.30;;;1.20;;
20170;SDS011;10245;51.344;6.620;2023-04-24T00:20:18;1.83;;;1.30;;
20170;SDS011;10245;51.344;6.620;2023-04-24T00:22:43;1.25;;;1.15;;
20170;SDS011;10245;51.344;6.620;2023-04-24T00:25:07;3.42;;;1.95;;
20170;SDS011;10245;51.344;6.620;2023-04-24T00:27:31;3.72;;;2.10;;
20170;SDS011;10245;51.344;6.620;2023-04-24T00:29:54;5.75;;;2.58;;
20170;SDS011;10245;51.344;6.620;2023-04-24T00:32:18;4.13;;;2.42;;
20170;SDS011;10245;51.344;6.620;2023-04-24T00:34:42;5.43;;;2.67;;
20170;SDS011;10245;51.344;6.620;2023-04-24T00:37:06;5.10;;;3.22;;
20170;SDS011;10245;51.344;6.620;2023-04-24T00:39:32;7.40;;;3.38;;
20170;SDS011;10245;51.344;6.620;2023-04-24T00:41:56;4.10;;;3.22;;
20170;SDS011;10245;51.344;6.620;2023-04-24T00:44:20;11.38;;;3.50;;
20170;SDS011;10245;51.344;6.620;2023-04-24T00:46:43;5.03;;;3.53;;
20170;SDS011;10245;51.344;6.620;2023-04-24T00:49:08;6.28;;;4.18;;
20170;SDS011;10245;51.344;6.620;2023-04-24T00:51:33;6.25;;;4.00;;
20170;SDS011;10245;51.344;6.620;2023-04-24T00:53:58;6.05;;;3.97;;
20170;SDS011;10245;51.344;6.620;2023-04-24T00:56:23;5.60;;;4.25;;
20170;SDS011;10245;51.344;6.620;2023-04-24T00:58:47;6.45;;;4.60;;
20170;SDS011;10245;51.344;6.620;2023-04-24T01:01:10;6.93;;;4.50;;
20170;SDS011;10245;51.344;6.620;2023-04-24T01:03:34;9.65;;;5.35;;
20170;SDS011;10245;51.344;6.620;2023-04-24T01:05:59;9.52;;;5.38;;
20170;SDS011;10245;51.344;6.620;2023-04-24T01:08:23;8.00;;;5.20;;
20170;SDS011;10245;51.344;6.620;2023-04-24T01:10:50;8.30;;;5.13;;
20170;SDS011;10245;51.344;6.620;2023-04-24T01:13:16;7.82;;;5.22;;
20170;SDS011;10245;51.344;6.620;2023-04-24T01:15:40;6.43;;;5.25;;
20170;SDS011;10245;51.344;6.620;2023-04-24T01:18:03;9.20;;;5.68;;
20170;SDS011;10245;51.344;6.620;2023-04-24T01:20:27;9.25;;;6.00;;
20170;SDS011;10245;51.344;6.620;2023-04-24T01:22:52;10.07;;;6.10;;
20170;SDS011;10245;51.344;6.620;2023-04-24T01:25:17;8.93;;;5.85;;
20170;SDS011;10245;51.344;6.620;2023-04-24T01:27:41;7.85;;;5.18;;
20170;SDS011;10245;51.344;6.620;2023-04-24T01:30:06;6.95;;;5.18;;
20170;SDS011;10245;51.344;6.620;2023-04-24T01:32:30;7.53;;;5.22;;
20170;SDS011;10245;51.344;6.620;2023-04-24T01:34:54;7.47;;;5.57;;
20170;SDS011;10245;51.344;6.620;2023-04-24T01:37:18;6.70;;;5.18;;
20170;SDS011;10245;51.344;6.620;2023-04-24T01:39:42;8.18;;;5.07;;
20170;SDS011;10245;51.344;6.620;2023-04-24T01:42:06;6.93;;;5.30;;
20170;SDS011;10245;51.344;6.620;2023-04-24T01:44:30;11.00;;;5.90;;
20170;SDS011;10245;51.344;6.620;2023-04-24T01:46:54;9.27;;;6.15;;
20170;SDS011;10245;51.344;6.620;2023-04-24T01:49:18;9.15;;;6.00;;
20170;SDS011;10245;51.344;6.620;2023-04-24T01:51:41;13.00;;;6.68;;
20170;SDS011;10245;51.344;6.620;2023-04-24T01:54:05;11.60;;;7.45;;
20170;SDS011;10245;51.344;6.620;2023-04-24T01:56:31;10.10;;;7.13;;
20170;SDS011;10245;51.344;6.620;2023-04-24T01:58:57;9.07;;;7.57;;
20170;SDS011;10245;51.344;6.620;2023-04-24T02:01:20;10.55;;;7.57;;
20170;SDS011;10245;51.344;6.620;2023-04-24T02:03:46;10.73;;;7.90;;
20170;SDS011;10245;51.344;6.620;2023-04-24T02:06:09;17.92;;;8.95;;
20170;SDS011;10245;51.344;6.620;2023-04-24T02:08:33;15.43;;;9.93;;
20170;SDS011;10245;51.344;6.620;2023-04-24T02:10:56;14.75;;;10.75;;
20170;SDS011;10245;51.344;6.620;2023-04-24T02:13:20;13.65;;;9.52;;
20170;SDS011;10245;51.344;6.620;2023-04-24T02:15:44;15.20;;;11.48;;
20170;SDS011;10245;51.344;6.620;2023-04-24T02:18:07;20.17;;;11.48;;
20170;SDS011;10245;51.344;6.620;2023-04-24T02:20:32;14.52;;;11.18;;
20170;SDS011;10245;51.344;6.620;2023-04-24T02:22:56;16.45;;;10.63;;
20170;SDS011;10245;51.344;6.620;2023-04-24T02:25:20;16.92;;;11.10;;
20170;SDS011;10245;51.344;6.620;2023-04-24T02:27:44;16.60;;;11.05;;
20170;SDS011;10245;51.344;6.620;2023-04-24T02:30:09;18.00;;;11.00;;
20170;SDS011;10245;51.344;6.620;2023-04-24T02:32:33;17.38;;;10.85;;
20170;SDS011;10245;51.344;6.620;2023-04-24T02:34:57;13.68;;;10.52;;
20170;SDS011;10245;51.344;6.620;2023-04-24T02:37:20;18.80;;;11.10;;
20170;SDS011;10245;51.344;6.620;2023-04-24T02:39:43;19.27;;;10.73;;
20170;SDS011;10245;51.344;6.620;2023-04-24T02:42:07;20.65;;;11.68;;
20170;SDS011;10245;51.344;6.620;2023-04-24T02:44:31;17.90;;;11.68;;
20170;SDS011;10245;51.344;6.620;2023-04-24T02:46:55;19.63;;;12.65;;
20170;SDS011;10245;51.344;6.620;2023-04-24T02:49:19;20.75;;;12.27;;
20170;SDS011;10245;51.344;6.620;2023-04-24T02:51:42;18.35;;;12.57;;
20170;SDS011;10245;51.344;6.620;2023-04-24T02:54:05;21.65;;;12.35;;
20170;SDS011;10245;51.344;6.620;2023-04-24T02:56:29;14.45;;;10.38;;
20170;SDS011;10245;51.344;6.620;2023-04-24T02:58:53;20.48;;;11.52;;
20170;SDS011;10245;51.344;6.620;2023-04-24T03:01:17;18.42;;;12.48;;
20170;SDS011;10245;51.344;6.620;2023-04-24T03:03:42;21.10;;;12.55;;
20170;SDS011;10245;51.344;6.620;2023-04-24T03:06:05;21.38;;;12.70;;
20170;SDS011;10245;51.344;6.620;2023-04-24T03:08:29;21.00;;;13.02;;
20170;SDS011;10245;51.344;6.620;2023-04-24T03:10:52;20.02;;;13.27;;
20170;SDS011;10245;51.344;6.620;2023-04-24T03:13:16;17.65;;;12.50;;
20170;SDS011;10245;51.344;6.620;2023-04-24T03:15:39;21.98;;;13.55;;
20170;SDS011;10245;51.344;6.620;2023-04-24T03:18:02;22.60;;;13.10;;
20170;SDS011;10245;51.344;6.620;2023-04-24T03:20:27;21.75;;;12.50;;
20170;SDS011;10245;51.344;6.620;2023-04-24T03:22:52;18.17;;;12.75;;
20170;SDS011;10245;51.344;6.620;2023-04-24T03:25:15;18.50;;;12.13;;
20170;SDS011;10245;51.344;6.620;2023-04-24T03:27:39;18.55;;;12.82;;
20170;SDS011;10245;51.344;6.620;2023-04-24T03:30:25;20.10;;;12.15;;
20170;SDS011;10245;51.344;6.620;2023-04-24T03:32:53;18.10;;;12.30;;
20170;SDS011;10245;51.344;6.620;2023-04-24T03:35:21;18.83;;;11.88;;
20170;SDS011;10245;51.344;6.620;2023-04-24T03:37:48;20.90;;;11.77;;
20170;SDS011;10245;51.344;6.620;2023-04-24T03:40:34;16.33;;;11.43;;
20170;SDS011;10245;51.344;6.620;2023-04-24T03:43:04;17.20;;;12.13;;
20170;SDS011;10245;51.344;6.620;2023-04-24T03:45:28;16.25;;;11.77;;
20170;SDS011;10245;51.344;6.620;2023-04-24T03:47:52;19.15;;;12.05;;
20170;SDS011;10245;51.344;6.620;2023-04-24T03:50:15;21.45;;;12.10;;
20170;SDS011;10245;51.344;6.620;2023-04-24T03:52:39;17.17;;;11.75;;
20170;SDS011;10245;51.344;6.620;2023-04-24T03:55:05;21.50;;;12.23;;
20170;SDS011;10245;51.344;6.620;2023-04-24T03:57:35;15.35;;;11.52;;
20170;SDS011;10245;51.344;6.620;2023-04-24T04:00:06;20.15;;;11.27;;
20170;SDS011;10245;51.344;6.620;2023-04-24T04:02:34;16.35;;;11.15;;
20170;SDS011;10245;51.344;6.620;2023-04-24T04:04:58;16.58;;;11.50;;
20170;SDS011;10245;51.344;6.620;2023-04-24T04:07:22;18.85;;;12.00;;
20170;SDS011;10245;51.344;6.620;2023-04-24T04:09:45;16.00;;;10.45;;
20170;SDS011;10245;51.344;6.620;2023-04-24T04:12:11;17.33;;;10.52;;
20170;SDS011;10245;51.344;6.620;2023-04-24T04:14:35;14.68;;;10.25;;
20170;SDS011;10245;51.344;6.620;2023-04-24T04:16:58;16.95;;;11.27;;
20170;SDS011;10245;51.344;6.620;2023-04-24T04:19:21;19.05;;;11.65;;
20170;SDS011;10245;51.344;6.620;2023-04-24T04:21:46;14.48;;;10.57;;
20170;SDS011;10245;51.344;6.620;2023-04-24T04:24:33;15.48;;;10.90;;
20170;SDS011;10245;51.344;6.620;2023-04-24T04:26:59;18.98;;;11.18;;
20170;SDS011;10245;51.344;6.620;2023-04-24T04:29:28;17.92;;;10.98;;
20170;SDS011;10245;51.344;6.620;2023-04-24T04:31:52;16.20;;;10.60;;
20170;SDS011;10245;51.344;6.620;2023-04-24T04:34:17;16.10;;;10.60;;
20170;SDS011;10245;51.344;6.620;2023-04-24T04:36:41;15.02;;;10.52;;
20170;SDS011;10245;51.344;6.620;2023-04-24T04:39:19;14.52;;;9.70;;
20170;SDS011;10245;51.344;6.620;2023-04-24T04:41:57;14.10;;;9.48;;
20170;SDS011;10245;51.344;6.620;2023-04-24T04:44:29;13.40;;;9.98;;
20170;SDS011;10245;51.344;6.620;2023-04-24T04:46:54;13.43;;;9.70;;
20170;SDS011;10245;51.344;6.620;2023-04-24T04:49:22;12.70;;;9.57;;
20170;SDS011;10245;51.344;6.620;2023-04-24T04:51:46;15.77;;;9.45;;
20170;SDS011;10245;51.344;6.620;2023-04-24T04:54:09;14.43;;;8.98;;
20170;SDS011;10245;51.344;6.620;2023-04-24T04:56:33;13.80;;;9.23;;
20170;SDS011;10245;51.344;6.620;2023-04-24T04:58:56;14.07;;;9.00;;
20170;SDS011;10245;51.344;6.620;2023-04-24T05:01:23;13.52;;;9.48;;
20170;SDS011;10245;51.344;6.620;2023-04-24T05:03:49;14.98;;;9.80;;
20170;SDS011;10245;51.344;6.620;2023-04-24T05:06:13;17.02;;;12.05;;
20170;SDS011;10245;51.344;6.620;2023-04-24T05:08:37;16.90;;;12.40;;
20170;SDS011;10245;51.344;6.620;2023-04-24T05:11:05;17.80;;;12.48;;
20170;SDS011;10245;51.344;6.620;2023-04-24T05:13:30;15.73;;;11.98;;
20170;SDS011;10245;51.344;6.620;2023-04-24T05:16:11;17.02;;;12.15;;
20170;SDS011;10245;51.344;6.620;2023-04-24T05:18:36;16.13;;;11.88;;
20170;SDS011;10245;51.344;6.620;2023-04-24T05:21:02;17.00;;;12.02;;
20170;SDS011;10245;51.344;6.620;2023-04-24T05:23:25;15.82;;;12.07;;
20170;SDS011;10245;51.344;6.620;2023-04-24T05:25:50;19.15;;;12.00;;
20170;SDS011;10245;51.344;6.620;2023-04-24T05:28:14;13.20;;;10.65;;
20170;SDS011;10245;51.344;6.620;2023-04-24T05:30:42;14.55;;;11.05;;
20170;SDS011;10245;51.344;6.620;2023-04-24T05:33:10;15.95;;;10.65;;
20170;SDS011;10245;51.344;6.620;2023-04-24T05:35:36;14.90;;;10.10;;
20170;SDS011;10245;51.344;6.620;2023-04-24T05:38:00;12.38;;;10.00;;
20170;SDS011;10245;51.344;6.620;2023-04-24T05:40:23;12.48;;;10.00;;
20170;SDS011;10245;51.344;6.620;2023-04-24T05:42:47;14.27;;;10.25;;
20170;SDS011;10245;51.344;6.620;2023-04-24T05:45:10;15.48;;;9.73;;
20170;SDS011;10245;51.344;6.620;2023-04-24T05:47:37;14.13;;;9.60;;
20170;SDS011;10245;51.344;6.620;2023-04-24T05:50:01;12.05;;;9.55;;
20170;SDS011;10245;51.344;6.620;2023-04-24T05:52:26;12.65;;;9.77;;
20170;SDS011;10245;51.344;6.620;2023-04-24T05:54:50;15.98;;;10.55;;
20170;SDS011;10245;51.344;6.620;2023-04-24T05:57:17;13.65;;;10.45;;
20170;SDS011;10245;51.344;6.620;2023-04-24T05:59:46;11.27;;;9.90;;
20170;SDS011;10245;51.344;6.620;2023-04-24T06:02:12;12.45;;;9.77;;
20170;SDS011;10245;51.344;6.620;2023-04-24T06:04:36;13.10;;;9.98;;
20170;SDS011;10245;51.344;6.620;2023-04-24T06:06:59;12.73;;;10.15;;
20170;SDS011;10245;51.344;6.620;2023-04-24T06:09:25;11.68;;;9.27;;
20170;SDS011;10245;51.344;6.620;2023-04-24T06:11:48;13.05;;;9.43;;
20170;SDS011;10245;51.344;6.620;2023-04-24T06:14:17;13.55;;;8.80;;
20170;SDS011;10245;51.344;6.620;2023-04-24T06:16:58;12.00;;;8.05;;
20170;SDS011;10245;51.344;6.620;2023-04-24T06:19:29;10.45;;;8.45;;
20170;SDS011;10245;51.344;6.620;2023-04-24T06:21:52;14.00;;;8.80;;
20170;SDS011;10245;51.344;6.620;2023-04-24T06:24:15;11.13;;;8.05;;
20170;SDS011;10245;51.344;6.620;2023-04-24T06:26:40;12.73;;;8.23;;
20170;SDS011;10245;51.344;6.620;2023-04-24T06:29:04;11.20;;;7.57;;
20170;SDS011;10245;51.344;6.620;2023-04-24T06:31:29;11.13;;;7.70;;
20170;SDS011;10245;51.344;6.620;2023-04-24T06:33:58;9.60;;;7.82;;
20170;SDS011;10245;51.344;6.620;2023-04-24T06:36:22;10.50;;;8.00;;
20170;SDS011;10245;51.344;6.620;2023-04-24T06:38:45;10.10;;;7.57;;
20170;SDS011;10245;51.344;6.620;2023-04-24T06:41:09;9.18;;;6.68;;
20170;SDS011;10245;51.344;6.620;2023-04-24T06:43:34;10.10;;;6.95;;
20170;SDS011;10245;51.344;6.620;2023-04-24T06:45:57;10.07;;;7.38;;
20170;SDS011;10245;51.344;6.620;2023-04-24T06:48:21;11.13;;;6.82;;
20170;SDS011;10245;51.344;6.620;2023-04-24T06:50:45;12.43;;;7.72;;
20170;SDS011;10245;51.344;6.620;2023-04-24T06:53:08;10.10;;;7.60;;
20170;SDS011;10245;51.344;6.620;2023-04-24T06:55:35;8.88;;;6.50;;
20170;SDS011;10245;51.344;6.620;2023-04-24T06:57:59;8.23;;;6.10;;
20170;SDS011;10245;51.344;6.620;2023-04-24T07:00:24;7.95;;;5.30;;
20170;SDS011;10245;51.344;6.620;2023-04-24T07:02:47;8.70;;;5.38;;
20170;SDS011;10245;51.344;6.620;2023-04-24T07:05:11;5.53;;;4.40;;
20170;SDS011;10245;51.344;6.620;2023-04-24T07:07:34;7.13;;;4.35;;
20170;SDS011;10245;51.344;6.620;2023-04-24T07:09:59;3.92;;;3.40;;
20170;SDS011;10245;51.344;6.620;2023-04-24T07:12:22;4.70;;;3.33;;
20170;SDS011;10245;51.344;6.620;2023-04-24T07:14:46;2.80;;;2.38;;
20170;SDS011;10245;51.344;6.620;2023-04-24T07:17:11;2.60;;;2.08;;
20170;SDS011;10245;51.344;6.620;2023-04-24T07:19:34;2.40;;;2.08;;
20170;SDS011;10245;51.344;6.620;2023-04-24T07:21:58;1.73;;;1.63;;
20170;SDS011;10245;51.344;6.620;2023-04-24T07:24:21;1.30;;;1.20;;
20170;SDS011;10245;51.344;6.620;2023-04-24T07:26:47;2.20;;;1.50;;
20170;SDS011;10245;51.344;6.620;2023-04-24T07:29:11;1.38;;;1.05;;
20170;SDS011;10245;51.344;6.620;2023-04-24T07:31:35;3.95;;;1.17;;
20170;SDS011;10245;51.344;6.620;2023-04-24T07:34:00;1.50;;;1.20;;
20170;SDS011;10245;51.344;6.620;2023-04-24T07:36:23;1.85;;;1.05;;
20170;SDS011;10245;51.344;6.620;2023-04-24T07:38:47;1.58;;;1.30;;
20170;SDS011;10245;51.344;6.620;2023-04-24T07:41:11;2.28;;;1.20;;
20170;SDS011;10245;51.344;6.620;2023-04-24T07:43:34;3.63;;;1.17;;
20170;SDS011;10245;51.344;6.620;2023-04-24T07:45:58;1.75;;;1.40;;
20170;SDS011;10245;51.344;6.620;2023-04-24T07:48:22;1.60;;;1.50;;
20170;SDS011;10245;51.344;6.620;2023-04-24T07:50:48;3.53;;;2.17;;
20170;SDS011;10245;51.344;6.620;2023-04-24T07:53:11;3.78;;;1.95;;
20170;SDS011;10245;51.344;6.620;2023-04-24T07:55:35;2.85;;;2.08;;
20170;SDS011;10245;51.344;6.620;2023-04-24T07:57:58;2.90;;;1.77;;
20170;SDS011;10245;51.344;6.620;2023-04-24T08:00:22;2.58;;;1.90;;
20170;SDS011;10245;51.344;6.620;2023-04-24T08:02:45;1.90;;;1.73;;
20170;SDS011;10245;51.344;6.620;2023-04-24T08:05:09;3.65;;;2.00;;
20170;SDS011;10245;51.344;6.620;2023-04-24T08:07:34;3.28;;;1.70;;
20170;SDS011;10245;51.344;6.620;2023-04-24T08:09:57;2.65;;;1.92;;
20170;SDS011;10245;51.344;6.620;2023-04-24T08:12:21;2.50;;;1.83;;
20170;SDS011;10245;51.344;6.620;2023-04-24T08:14:44;1.92;;;1.80;;
20170;SDS011;10245;51.344;6.620;2023-04-24T08:17:08;3.75;;;1.75;;
20170;SDS011;10245;51.344;6.620;2023-04-24T08:19:31;1.70;;;1.50;;
20170;SDS011;10245;51.344;6.620;2023-04-24T08:21:54;3.40;;;1.42;;
20170;SDS011;10245;51.344;6.620;2023-04-24T08:24:19;1.60;;;1.42;;
20170;SDS011;10245;51.344;6.620;2023-04-24T08:26:42;1.77;;;1.50;;
20170;SDS011;10245;51.344;6.620;2023-04-24T08:29:06;1.50;;;1.25;;
20170;SDS011;10245;51.344;6.620;2023-04-24T08:31:29;2.90;;;1.10;;
20170;SDS011;10245;51.344;6.620;2023-04-24T08:33:52;2.97;;;1.58;;
20170;SDS011;10245;51.344;6.620;2023-04-24T08:36:16;4.68;;;1.65;;
20170;SDS011;10245;51.344;6.620;2023-04-24T08:38:39;3.17;;;1.70;;
20170;SDS011;10245;51.344;6.620;2023-04-24T08:41:05;2.78;;;1.73;;
20170;SDS011;10245;51.344;6.620;2023-04-24T08:43:30;2.97;;;1.67;;
20170;SDS011;10245;51.344;6.620;2023-04-24T08:45:55;2.85;;;1.67;;
20170;SDS011;10245;51.344;6.620;2023-04-24T08:48:20;3.58;;;1.80;;
20170;SDS011;10245;51.344;6.620;2023-04-24T08:50:52;4.68;;;2.58;;
20170;SDS011;10245;51.344;6.620;2023-04-24T08:53:17;6.25;;;4.18;;
20170;SDS011;10245;51.344;6.620;2023-04-24T08:55:41;7.95;;;5.60;;
20170;SDS011;10245;51.344;6.620;2023-04-24T08:58:10;9.23;;;5.95;;
20170;SDS011;10245;51.344;6.620;2023-04-24T09:00:35;7.50;;;6.13;;
20170;SDS011;10245;51.344;6.620;2023-04-24T09:03:00;8.75;;;6.10;;
20170;SDS011;10245;51.344;6.620;2023-04-24T09:05:24;8.77;;;6.10;;
20170;SDS011;10245;51.344;6.620;2023-04-24T09:07:49;12.38;;;6.70;;
20170;SDS011;10245;51.344;6.620;2023-04-24T09:10:16;9.13;;;7.30;;
20170;SDS011;10245;51.344;6.620;2023-04-24T09:12:40;11.48;;;7.85;;
20170;SDS011;10245;51.344;6.620;2023-04-24T09:15:06;10.32;;;7.05;;
20170;SDS011;10245;51.344;6.620;2023-04-24T09:17:31;9.82;;;7.05;;
20170;SDS011;10245;51.344;6.620;2023-04-24T09:19:55;11.77;;;7.00;;
20170;SDS011;10245;51.344;6.620;2023-04-24T09:22:18;10.82;;;6.60;;
20170;SDS011;10245;51.344;6.620;2023-04-24T09:24:44;7.80;;;6.35;;
20170;SDS011;10245;51.344;6.620;2023-04-24T09:27:08;8.75;;;6.78;;
20170;SDS011;10245;51.344;6.620;2023-04-24T09:29:36;11.02;;;7.20;;
20170;SDS011;10245;51.344;6.620;2023-04-24T09:32:00;10.57;;;7.53;;
20170;SDS011;10245;51.344;6.620;2023-04-24T09:34:43;12.50;;;7.80;;
20170;SDS011;10245;51.344;6.620;2023-04-24T09:37:10;15.98;;;7.57;;
20170;SDS011;10245;51.344;6.620;2023-04-24T09:39:33;13.40;;;8.25;;
20170;SDS011;10245;51.344;6.620;2023-04-24T09:41:56;15.13;;;8.18;;
20170;SDS011;10245;51.344;6.620;2023-04-24T09:44:21;16.05;;;9.18;;
20170;SDS011;10245;51.344;6.620;2023-04-24T09:46:49;16.05;;;8.70;;
20170;SDS011;10245;51.344;6.620;2023-04-24T09:49:15;17.27;;;8.30;;
20170;SDS011;10245;51.344;6.620;2023-04-24T09:51:44;14.88;;;7.13;;
20170;SDS011;10245;51.344;6.620;2023-04-24T09:54:13;11.43;;;6.07;;
20170;SDS011;10245;51.344;6.620;2023-04-24T09:56:39;13.90;;;6.47;;
20170;SDS011;10245;51.344;6.620;2023-04-24T09:59:06;18.45;;;7.40;;
20170;SDS011;10245;51.344;6.620;2023-04-24T10:01:30;15.50;;;7.07;;
20170;SDS011;10245;51.344;6.620;2023-04-24T10:03:53;11.98;;;6.55;;
20170;SDS011;10245;51.344;6.620;2023-04-24T10:06:18;12.35;;;6.25;;
20170;SDS011;10245;51.344;6.620;2023-04-24T10:08:41;14.05;;;5.55;;
20170;SDS011;10245;51.344;6.620;2023-04-24T10:11:07;10.85;;;6.03;;
20170;SDS011;10245;51.344;6.620;2023-04-24T10:13:32;19.10;;;5.93;;
20170;SDS011;10245;51.344;6.620;2023-04-24T10:15:57;10.88;;;5.35;;
20170;SDS011;10245;51.344;6.620;2023-04-24T10:18:23;14.40;;;5.57;;
20170;SDS011;10245;51.344;6.620;2023-04-24T10:20:47;10.60;;;4.82;;
20170;SDS011;10245;51.344;6.620;2023-04-24T10:23:12;10.63;;;5.07;;
20170;SDS011;10245;51.344;6.620;2023-04-24T10:25:36;17.70;;;5.55;;
20170;SDS011;10245;51.344;6.620;2023-04-24T10:28:00;19.30;;;5.55;;
20170;SDS011;10245;51.344;6.620;2023-04-24T10:30:25;14.93;;;5.55;;
20170;SDS011;10245;51.344;6.620;2023-04-24T10:32:50;16.35;;;6.03;;
20170;SDS011;10245;51.344;6.620;2023-04-24T10:35:14;13.50;;;5.57;;
20170;SDS011;10245;51.344;6.620;2023-04-24T10:37:38;17.00;;;6.15;;
20170;SDS011;10245;51.344;6.620;2023-04-24T10:40:08;13.63;;;6.15;;
20170;SDS011;10245;51.344;6.620;2023-04-24T10:42:33;15.18;;;6.88;;
20170;SDS011;10245;51.344;6.620;2023-04-24T10:44:56;15.00;;;6.55;;
20170;SDS011;10245;51.344;6.620;2023-04-24T10:47:20;14.95;;;6.78;;
20170;SDS011;10245;51.344;6.620;2023-04-24T10:49:43;14.27;;;7.13;;
20170;SDS011;10245;51.344;6.620;2023-04-24T10:52:08;15.48;;;7.22;;
20170;SDS011;10245;51.344;6.620;2023-04-24T10:54:36;17.63;;;7.65;;
20170;SDS011;10245;51.344;6.620;2023-04-24T11:02:37;13.40;;;7.20;;
20170;SDS011;10245;51.344;6.620;2023-04-24T11:05:10;13.57;;;6.55;;
20170;SDS011;10245;51.344;6.620;2023-04-24T11:07:47;16.92;;;7.57;;
20170;SDS011;10245;51.344;6.620;2023-04-24T11:10:37;18.17;;;6.60;;
20170;SDS011;10245;51.344;6.620;2023-04-24T11:13:03;13.80;;;6.20;;
20170;SDS011;10245;51.344;6.620;2023-04-24T11:15:27;18.23;;;5.82;;
20170;SDS011;10245;51.344;6.620;2023-04-24T11:17:50;14.60;;;6.07;;
20170;SDS011;10245;51.344;6.620;2023-04-24T11:20:22;12.05;;;5.05;;
20170;SDS011;10245;51.344;6.620;2023-04-24T11:23:07;8.73;;;4.15;;
20170;SDS011;10245;51.344;6.620;2023-04-24T11:25:31;11.88;;;4.63;;
20170;SDS011;10245;51.344;6.620;2023-04-24T11:28:04;13.38;;;5.47;;
20170;SDS011;10245;51.344;6.620;2023-04-24T11:30:28;10.05;;;4.05;;
20170;SDS011;10245;51.344;6.620;2023-04-24T11:32:54;14.00;;;4.28;;
20170;SDS011;10245;51.344;6.620;2023-04-24T11:35:27;8.45;;;4.15;;
20170;SDS011;10245;51.344;6.620;2023-04-24T11:37:52;10.13;;;3.78;;
20170;SDS011;10245;51.344;6.620;2023-04-24T11:40:20;15.07;;;4.50;;
20170;SDS011;10245;51.344;6.620;2023-04-24T11:42:45;11.85;;;4.07;;
20170;SDS011;10245;51.344;6.620;2023-04-24T11:45:12;11.45;;;3.95;;
20170;SDS011;10245;51.344;6.620;2023-04-24T11:47:38;9.80;;;3.75;;
20170;SDS011;10245;51.344;6.620;2023-04-24T11:50:03;8.02;;;3.70;;
20170;SDS011;10245;51.344;6.620;2023-04-24T11:52:29;14.20;;;4.28;;
20170;SDS011;10245;51.344;6.620;2023-04-24T11:54:52;13.30;;;5.03;;
20170;SDS011;10245;51.344;6.620;2023-04-24T11:57:16;13.77;;;4.30;;
20170;SDS011;10245;51.344;6.620;2023-04-24T11:59:43;19.10;;;6.50;;
20170;SDS011;10245;51.344;6.620;2023-04-24T12:02:09;11.85;;;4.38;;
20170;SDS011;10245;51.344;6.620;2023-04-24T12:04:44;13.18;;;5.05;;
20170;SDS011;10245;51.344;6.620;2023-04-24T12:07:08;12.30;;;4.40;;
20170;SDS011;10245;51.344;6.620;2023-04-24T12:09:40;9.93;;;3.83;;
20170;SDS011;10245;51.344;6.620;2023-04-24T12:12:06;10.38;;;4.78;;
20170;SDS011;10245;51.344;6.620;2023-04-24T12:14:33;9.95;;;3.63;;
20170;SDS011;10245;51.344;6.620;2023-04-24T12:17:11;9.30;;;3.15;;
20170;SDS011;10245;51.344;6.620;2023-04-24T12:19:34;9.30;;;3.28;;
20170;SDS011;10245;51.344;6.620;2023-04-24T12:21:59;7.38;;;3.20;;
20170;SDS011;10245;51.344;6.620;2023-04-24T12:24:23;6.03;;;2.70;;
20170;SDS011;10245;51.344;6.620;2023-04-24T12:26:46;10.15;;;3.03;;
20170;SDS011;10245;51.344;6.620;2023-04-24T12:29:09;10.43;;;2.70;;
20170;SDS011;10245;51.344;6.620;2023-04-24T12:31:33;9.65;;;3.30;;
20170;SDS011;10245;51.344;6.620;2023-04-24T12:33:58;6.78;;;2.70;;
20170;SDS011;10245;51.344;6.620;2023-04-24T12:36:21;7.78;;;2.70;;
20170;SDS011;10245;51.344;6.620;2023-04-24T12:38:45;5.22;;;2.28;;
20170;SDS011;10245;51.344;6.620;2023-04-24T12:41:08;3.97;;;2.33;;
20170;SDS011;10245;51.344;6.620;2023-04-24T12:43:35;7.43;;;2.20;;
20170;SDS011;10245;51.344;6.620;2023-04-24T12:45:59;3.97;;;1.80;;
20170;SDS011;10245;51.344;6.620;2023-04-24T12:48:22;3.55;;;2.00;;
20170;SDS011;10245;51.344;6.620;2023-04-24T12:50:47;6.07;;;2.00;;
20170;SDS011;10245;51.344;6.620;2023-04-24T12:53:10;6.80;;;1.88;;
20170;SDS011;10245;51.344;6.620;2023-04-24T12:55:34;6.60;;;2.00;;
20170;SDS011;10245;51.344;6.620;2023-04-24T12:57:57;5.20;;;2.22;;
20170;SDS011;10245;51.344;6.620;2023-04-24T13:00:21;4.63;;;2.10;;
20170;SDS011;10245;51.344;6.620;2023-04-24T13:02:44;3.33;;;1.80;;
20170;SDS011;10245;51.344;6.620;2023-04-24T13:05:08;4.85;;;1.95;;
20170;SDS011;10245;51.344;6.620;2023-04-24T13:07:34;4.90;;;1.83;;
20170;SDS011;10245;51.344;6.620;2023-04-24T13:09:57;11.30;;;2.60;;
20170;SDS011;10245;51.344;6.620;2023-04-24T13:12:21;19.00;;;3.40;;
20170;SDS011;10245;51.344;6.620;2023-04-24T13:14:45;6.20;;;1.70;;
20170;SDS011;10245;51.344;6.620;2023-04-24T13:17:09;4.85;;;1.73;;
20170;SDS011;10245;51.344;6.620;2023-04-24T13:19:35;5.43;;;1.70;;
20170;SDS011;10245;51.344;6.620;2023-04-24T13:21:59;3.88;;;1.38;;
20170;SDS011;10245;51.344;6.620;2023-04-24T13:24:23;6.15;;;1.35;;
20170;SDS011;10245;51.344;6.620;2023-04-24T13:26:47;4.43;;;1.30;;
20170;SDS011;10245;51.344;6.620;2023-04-24T13:29:10;2.22;;;1.30;;
20170;SDS011;10245;51.344;6.620;2023-04-24T13:31:34;5.63;;;1.35;;
20170;SDS011;10245;51.344;6.620;2023-04-24T13:33:57;5.40;;;1.45;;
20170;SDS011;10245;51.344;6.620;2023-04-24T13:36:21;1.67;;;1.02;;
20170;SDS011;10245;51.344;6.620;2023-04-24T13:38:44;3.95;;;1.20;;
20170;SDS011;10245;51.344;6.620;2023-04-24T13:41:09;2.25;;;1.13;;
20170;SDS011;10245;51.344;6.620;2023-04-24T13:43:33;2.50;;;1.23;;
20170;SDS011;10245;51.344;6.620;2023-04-24T13:45:56;2.30;;;1.10;;
20170;SDS011;10245;51.344;6.620;2023-04-24T13:48:20;3.40;;;1.42;;
20170;SDS011;10245;51.344;6.620;2023-04-24T13:50:44;4.57;;;1.75;;
20170;SDS011;10245;51.344;6.620;2023-04-24T13:53:09;1.73;;;1.10;;
20170;SDS011;10245;51.344;6.620;2023-04-24T13:55:33;3.10;;;1.48;;
20170;SDS011;10245;51.344;6.620;2023-04-24T13:57:58;2.55;;;1.75;;
20170;SDS011;10245;51.344;6.620;2023-04-24T14:00:22;4.80;;;1.52;;
20170;SDS011;10245;51.344;6.620;2023-04-24T14:02:46;7.78;;;1.63;;
20170;SDS011;10245;51.344;6.620;2023-04-24T14:05:10;3.67;;;1.40;;
20170;SDS011;10245;51.344;6.620;2023-04-24T14:07:36;8.05;;;1.60;;
20170;SDS011;10245;51.344;6.620;2023-04-24T14:09:59;4.07;;;1.27;;
20170;SDS011;10245;51.344;6.620;2023-04-24T14:12:22;3.85;;;1.30;;
20170;SDS011;10245;51.344;6.620;2023-04-24T14:14:48;3.28;;;1.35;;
20170;SDS011;10245;51.344;6.620;2023-04-24T14:17:11;5.65;;;1.20;;
20170;SDS011;10245;51.344;6.620;2023-04-24T14:19:35;4.32;;;1.30;;
20170;SDS011;10245;51.344;6.620;2023-04-24T14:21:58;5.35;;;1.27;;
20170;SDS011;10245;51.344;6.620;2023-04-24T14:24:22;4.90;;;1.60;;
20170;SDS011;10245;51.344;6.620;2023-04-24T14:26:46;3.67;;;1.20;;
20170;SDS011;10245;51.344;6.620;2023-04-24T14:29:09;5.05;;;1.85;;
20170;SDS011;10245;51.344;6.620;2023-04-24T14:31:37;4.30;;;1.20;;